sensor_id;sensor_type;location;lat;lon;timestamp;P1;durP1;ratioP1;P2;durP2;ratioP2
2486;SDS011;1254;49.144;8.212;2023-01-26T00:01:18;30.08;;;17.75;;
2486;SDS011;1254;49.144;8.212;2023-01-26T00:03:47;26.42;;;16.20;;
2486;SDS011;1254;49.144;8.212;2023-01-26T00:06:16;23.88;;;15.35;;
2486;SDS011;1254;49.144;8.212;2023-01-26T00:08:45;27.60;;;15.82;;
2486;SDS011;1254;49.144;8.212;2023-01-26T00:11:14;26.27;;;14.73;;
2486;SDS011;1254;49.144;8.212;2023-01-26T00:13:44;27.52;;;14.35;;
2486;SDS011;1254;49.144;8.212;2023-01-26T00:16:12;27.45;;;15.57;;
2486;SDS011;1254;49.144;8.212;2023-01-26T00:18:41;25.67;;;15.05;;
2486;SDS011;1254;49.144;8.212;2023-01-26T00:21:11;26.45;;;15.38;;
2486;SDS011;1254;49.144;8.212;2023-01-26T00:23:39;25.83;;;13.80;;
2486;SDS011;1254;49.144;8.212;2023-01-26T00:26:08;22.85;;;14.57;;
2486;SDS011;1254;49.144;8.212;2023-01-26T00:28:38;25.00;;;14.38;;
2486;SDS011;1254;49.144;8.212;2023-01-26T00:31:09;27.17;;;14.90;;
2486;SDS011;1254;49.144;8.212;2023-01-26T00:33:38;23.70;;;14.10;;
2486;SDS011;1254;49.144;8.212;2023-01-26T00:36:09;29.63;;;17.70;;
2486;SDS011;1254;49.144;8.212;2023-01-26T00:38:39;27.60;;;16.30;;
2486;SDS011;1254;49.144;8.212;2023-01-26T00:41:07;29.17;;;16.30;;
2486;SDS011;1254;49.144;8.212;2023-01-26T00:43:55;27.50;;;15.80;;
2486;SDS011;1254;49.144;8.212;2023-01-26T00:46:25;25.95;;;15.80;;
2486;SDS011;1254;49.144;8.212;2023-01-26T00:48:53;24.40;;;15.48;;
2486;SDS011;1254;49.144;8.212;2023-01-26T00:51:21;26.27;;;15.10;;
2486;SDS011;1254;49.144;8.212;2023-01-26T00:53:49;24.13;;;15.75;;
2486;SDS011;1254;49.144;8.212;2023-01-26T00:56:18;24.60;;;16.10;;
2486;SDS011;1254;49.144;8.212;2023-01-26T00:58:46;27.73;;;15.52;;
2486;SDS011;1254;49.144;8.212;2023-01-26T01:01:14;28.00;;;16.85;;
2486;SDS011;1254;49.144;8.212;2023-01-26T01:03:43;26.10;;;15.60;;
2486;SDS011;1254;49.144;8.212;2023-01-26T01:06:11;26.75;;;16.05;;
2486;SDS011;1254;49.144;8.212;2023-01-26T01:08:40;26.45;;;15.13;;
2486;SDS011;1254;49.144;8.212;2023-01-26T01:11:09;25.20;;;16.33;;
2486;SDS011;1254;49.144;8.212;2023-01-26T01:13:38;33.53;;;17.23;;
2486;SDS011;1254;49.144;8.212;2023-01-26T01:16:06;25.02;;;15.82;;
2486;SDS011;1254;49.144;8.212;2023-01-26T01:18:35;26.27;;;15.43;;
2486;SDS011;1254;49.144;8.212;2023-01-26T01:21:08;21.25;;;13.55;;
2486;SDS011;1254;49.144;8.212;2023-01-26T01:23:37;26.48;;;15.15;;
2486;SDS011;1254;49.144;8.212;2023-01-26T01:26:09;26.55;;;13.93;;
2486;SDS011;1254;49.144;8.212;2023-01-26T01:28:38;27.27;;;14.25;;
2486;SDS011;1254;49.144;8.212;2023-01-26T01:31:07;24.15;;;13.88;;
2486;SDS011;1254;49.144;8.212;2023-01-26T01:33:36;30.92;;;16.77;;
2486;SDS011;1254;49.144;8.212;2023-01-26T01:36:06;23.40;;;14.20;;
2486;SDS011;1254;49.144;8.212;2023-01-26T01:38:36;28.35;;;14.85;;
2486;SDS011;1254;49.144;8.212;2023-01-26T01:41:05;26.58;;;15.60;;
2486;SDS011;1254;49.144;8.212;2023-01-26T01:43:33;30.73;;;17.05;;
2486;SDS011;1254;49.144;8.212;2023-01-26T01:46:02;27.50;;;15.38;;
2486;SDS011;1254;49.144;8.212;2023-01-26T01:48:34;29.40;;;15.70;;
2486;SDS011;1254;49.144;8.212;2023-01-26T01:51:05;26.88;;;15.00;;
2486;SDS011;1254;49.144;8.212;2023-01-26T01:53:36;25.80;;;15.30;;
2486;SDS011;1254;49.144;8.212;2023-01-26T01:56:07;22.95;;;14.70;;
2486;SDS011;1254;49.144;8.212;2023-01-26T01:58:37;30.95;;;16.05;;
2486;SDS011;1254;49.144;8.212;2023-01-26T02:01:06;27.38;;;16.45;;
2486;SDS011;1254;49.144;8.212;2023-01-26T02:03:35;34.95;;;17.90;;
2486;SDS011;1254;49.144;8.212;2023-01-26T02:06:06;28.30;;;16.27;;
2486;SDS011;1254;49.144;8.212;2023-01-26T02:08:36;28.33;;;16.77;;
2486;SDS011;1254;49.144;8.212;2023-01-26T02:11:07;31.98;;;17.17;;
2486;SDS011;1254;49.144;8.212;2023-01-26T02:13:36;30.60;;;15.45;;
2486;SDS011;1254;49.144;8.212;2023-01-26T02:16:05;33.83;;;17.38;;
2486;SDS011;1254;49.144;8.212;2023-01-26T02:18:33;31.90;;;16.92;;
2486;SDS011;1254;49.144;8.212;2023-01-26T02:21:02;25.60;;;13.93;;
2486;SDS011;1254;49.144;8.212;2023-01-26T02:23:38;30.10;;;16.92;;
2486;SDS011;1254;49.144;8.212;2023-01-26T02:26:11;20.50;;;14.50;;
2486;SDS011;1254;49.144;8.212;2023-01-26T02:28:40;30.70;;;15.13;;
2486;SDS011;1254;49.144;8.212;2023-01-26T02:31:09;25.40;;;16.98;;
2486;SDS011;1254;49.144;8.212;2023-01-26T02:33:38;24.98;;;14.90;;
2486;SDS011;1254;49.144;8.212;2023-01-26T02:36:09;27.35;;;15.25;;
2486;SDS011;1254;49.144;8.212;2023-01-26T02:38:45;27.45;;;15.15;;
2486;SDS011;1254;49.144;8.212;2023-01-26T02:41:17;25.02;;;14.57;;
2486;SDS011;1254;49.144;8.212;2023-01-26T02:43:59;27.75;;;15.80;;
2486;SDS011;1254;49.144;8.212;2023-01-26T02:46:27;27.67;;;13.85;;
2486;SDS011;1254;49.144;8.212;2023-01-26T02:48:56;23.13;;;14.25;;
2486;SDS011;1254;49.144;8.212;2023-01-26T02:51:50;28.02;;;14.80;;
2486;SDS011;1254;49.144;8.212;2023-01-26T02:54:18;30.02;;;16.48;;
2486;SDS011;1254;49.144;8.212;2023-01-26T02:57:05;30.90;;;16.30;;
2486;SDS011;1254;49.144;8.212;2023-01-26T02:59:34;25.73;;;15.73;;
2486;SDS011;1254;49.144;8.212;2023-01-26T03:02:02;27.48;;;14.48;;
2486;SDS011;1254;49.144;8.212;2023-01-26T03:04:31;27.02;;;16.27;;
2486;SDS011;1254;49.144;8.212;2023-01-26T03:07:01;28.73;;;15.68;;
2486;SDS011;1254;49.144;8.212;2023-01-26T03:09:29;29.85;;;15.45;;
2486;SDS011;1254;49.144;8.212;2023-01-26T03:11:57;28.42;;;16.00;;
2486;SDS011;1254;49.144;8.212;2023-01-26T03:14:27;33.97;;;15.95;;
2486;SDS011;1254;49.144;8.212;2023-01-26T03:16:55;24.30;;;14.05;;
2486;SDS011;1254;49.144;8.212;2023-01-26T03:19:23;25.90;;;14.38;;
2486;SDS011;1254;49.144;8.212;2023-01-26T03:22:09;30.98;;;15.27;;
2486;SDS011;1254;49.144;8.212;2023-01-26T03:24:55;29.05;;;15.23;;
2486;SDS011;1254;49.144;8.212;2023-01-26T03:27:43;29.23;;;16.02;;
2486;SDS011;1254;49.144;8.212;2023-01-26T03:30:15;29.67;;;16.20;;
2486;SDS011;1254;49.144;8.212;2023-01-26T03:32:44;27.10;;;12.23;;
2486;SDS011;1254;49.144;8.212;2023-01-26T03:35:15;25.73;;;13.35;;
2486;SDS011;1254;49.144;8.212;2023-01-26T03:37:48;21.05;;;12.75;;
2486;SDS011;1254;49.144;8.212;2023-01-26T03:40:25;31.98;;;15.93;;
2486;SDS011;1254;49.144;8.212;2023-01-26T03:43:11;29.58;;;14.98;;
2486;SDS011;1254;49.144;8.212;2023-01-26T03:46:00;30.27;;;14.63;;
2486;SDS011;1254;49.144;8.212;2023-01-26T03:48:46;21.95;;;12.48;;
2486;SDS011;1254;49.144;8.212;2023-01-26T03:51:32;29.65;;;15.23;;
2486;SDS011;1254;49.144;8.212;2023-01-26T03:54:18;28.08;;;15.65;;
2486;SDS011;1254;49.144;8.212;2023-01-26T03:57:03;22.00;;;13.73;;
2486;SDS011;1254;49.144;8.212;2023-01-26T03:59:32;25.50;;;13.95;;
2486;SDS011;1254;49.144;8.212;2023-01-26T04:02:08;29.65;;;14.45;;
2486;SDS011;1254;49.144;8.212;2023-01-26T04:04:54;24.10;;;13.90;;
2486;SDS011;1254;49.144;8.212;2023-01-26T04:07:43;25.10;;;14.27;;
2486;SDS011;1254;49.144;8.212;2023-01-26T04:10:29;27.17;;;15.88;;
2486;SDS011;1254;49.144;8.212;2023-01-26T04:12:59;30.58;;;16.25;;
2486;SDS011;1254;49.144;8.212;2023-01-26T04:15:51;30.25;;;16.67;;
2486;SDS011;1254;49.144;8.212;2023-01-26T04:18:38;40.33;;;18.65;;
2486;SDS011;1254;49.144;8.212;2023-01-26T04:21:24;34.10;;;19.52;;
2486;SDS011;1254;49.144;8.212;2023-01-26T04:23:53;37.28;;;19.58;;
2486;SDS011;1254;49.144;8.212;2023-01-26T04:26:23;35.33;;;16.77;;
2486;SDS011;1254;49.144;8.212;2023-01-26T04:28:52;30.20;;;15.95;;
2486;SDS011;1254;49.144;8.212;2023-01-26T04:31:23;35.47;;;17.30;;
2486;SDS011;1254;49.144;8.212;2023-01-26T04:33:52;41.15;;;16.88;;
2486;SDS011;1254;49.144;8.212;2023-01-26T04:36:21;33.50;;;17.63;;
2486;SDS011;1254;49.144;8.212;2023-01-26T04:38:50;34.05;;;18.10;;
2486;SDS011;1254;49.144;8.212;2023-01-26T04:41:21;31.42;;;16.00;;
2486;SDS011;1254;49.144;8.212;2023-01-26T04:44:01;30.20;;;15.30;;
2486;SDS011;1254;49.144;8.212;2023-01-26T04:46:29;33.05;;;15.60;;
2486;SDS011;1254;49.144;8.212;2023-01-26T04:48:59;29.05;;;14.65;;
2486;SDS011;1254;49.144;8.212;2023-01-26T04:51:28;30.67;;;15.60;;
2486;SDS011;1254;49.144;8.212;2023-01-26T04:53:56;26.75;;;14.80;;
2486;SDS011;1254;49.144;8.212;2023-01-26T04:56:28;31.60;;;16.20;;
2486;SDS011;1254;49.144;8.212;2023-01-26T04:58:59;32.78;;;16.58;;
2486;SDS011;1254;49.144;8.212;2023-01-26T05:01:28;28.77;;;15.90;;
2486;SDS011;1254;49.144;8.212;2023-01-26T05:03:58;27.40;;;16.10;;
2486;SDS011;1254;49.144;8.212;2023-01-26T05:06:29;25.75;;;14.13;;
2486;SDS011;1254;49.144;8.212;2023-01-26T05:08:57;21.80;;;12.65;;
2486;SDS011;1254;49.144;8.212;2023-01-26T05:11:26;35.55;;;14.48;;
2486;SDS011;1254;49.144;8.212;2023-01-26T05:14:16;27.05;;;14.07;;
2486;SDS011;1254;49.144;8.212;2023-01-26T05:17:10;28.77;;;14.30;;
2486;SDS011;1254;49.144;8.212;2023-01-26T05:20:02;23.25;;;12.63;;
2486;SDS011;1254;49.144;8.212;2023-01-26T05:22:41;24.13;;;14.73;;
2486;SDS011;1254;49.144;8.212;2023-01-26T05:25:29;29.90;;;14.75;;
2486;SDS011;1254;49.144;8.212;2023-01-26T05:28:04;24.15;;;14.60;;
2486;SDS011;1254;49.144;8.212;2023-01-26T05:30:32;31.88;;;15.38;;
2486;SDS011;1254;49.144;8.212;2023-01-26T05:33:01;23.45;;;14.55;;
2486;SDS011;1254;49.144;8.212;2023-01-26T05:35:31;26.98;;;13.73;;
2486;SDS011;1254;49.144;8.212;2023-01-26T05:38:01;21.38;;;12.18;;
2486;SDS011;1254;49.144;8.212;2023-01-26T05:40:32;27.48;;;12.60;;
2486;SDS011;1254;49.144;8.212;2023-01-26T05:43:00;21.65;;;12.98;;
2486;SDS011;1254;49.144;8.212;2023-01-26T05:45:44;21.30;;;12.02;;
2486;SDS011;1254;49.144;8.212;2023-01-26T05:48:16;22.23;;;13.27;;
2486;SDS011;1254;49.144;8.212;2023-01-26T05:50:46;18.40;;;11.73;;
2486;SDS011;1254;49.144;8.212;2023-01-26T05:53:18;23.80;;;13.45;;
2486;SDS011;1254;49.144;8.212;2023-01-26T05:55:47;23.88;;;14.25;;
2486;SDS011;1254;49.144;8.212;2023-01-26T05:58:20;26.95;;;14.20;;
2486;SDS011;1254;49.144;8.212;2023-01-26T06:00:48;21.20;;;11.00;;
2486;SDS011;1254;49.144;8.212;2023-01-26T06:03:23;20.67;;;11.65;;
2486;SDS011;1254;49.144;8.212;2023-01-26T06:05:52;23.10;;;12.48;;
2486;SDS011;1254;49.144;8.212;2023-01-26T06:08:31;17.90;;;11.63;;
2486;SDS011;1254;49.144;8.212;2023-01-26T06:11:20;19.08;;;11.38;;
2486;SDS011;1254;49.144;8.212;2023-01-26T06:14:00;23.73;;;12.93;;
2486;SDS011;1254;49.144;8.212;2023-01-26T06:16:29;23.38;;;11.23;;
2486;SDS011;1254;49.144;8.212;2023-01-26T06:18:58;18.35;;;10.50;;
2486;SDS011;1254;49.144;8.212;2023-01-26T06:21:26;20.95;;;12.18;;
2486;SDS011;1254;49.144;8.212;2023-01-26T06:23:57;21.38;;;12.13;;
2486;SDS011;1254;49.144;8.212;2023-01-26T06:26:25;17.80;;;11.20;;
2486;SDS011;1254;49.144;8.212;2023-01-26T06:28:56;17.30;;;11.02;;
2486;SDS011;1254;49.144;8.212;2023-01-26T06:31:27;29.90;;;12.18;;
2486;SDS011;1254;49.144;8.212;2023-01-26T06:33:57;25.15;;;12.57;;
2486;SDS011;1254;49.144;8.212;2023-01-26T06:36:26;20.17;;;11.82;;
2486;SDS011;1254;49.144;8.212;2023-01-26T06:38:59;22.05;;;11.30;;
2486;SDS011;1254;49.144;8.212;2023-01-26T06:41:27;24.00;;;12.50;;
2486;SDS011;1254;49.144;8.212;2023-01-26T06:43:55;23.50;;;11.52;;
2486;SDS011;1254;49.144;8.212;2023-01-26T06:46:24;22.45;;;11.90;;
2486;SDS011;1254;49.144;8.212;2023-01-26T06:48:53;21.45;;;12.10;;
2486;SDS011;1254;49.144;8.212;2023-01-26T06:54:10;24.58;;;12.27;;
2486;SDS011;1254;49.144;8.212;2023-01-26T06:56:55;24.65;;;12.05;;
2486;SDS011;1254;49.144;8.212;2023-01-26T06:59:41;25.92;;;15.35;;
2486;SDS011;1254;49.144;8.212;2023-01-26T07:02:28;23.08;;;13.25;;
2486;SDS011;1254;49.144;8.212;2023-01-26T07:04:56;23.67;;;13.15;;
2486;SDS011;1254;49.144;8.212;2023-01-26T07:07:24;26.25;;;13.30;;
2486;SDS011;1254;49.144;8.212;2023-01-26T07:09:54;24.58;;;13.35;;
2486;SDS011;1254;49.144;8.212;2023-01-26T07:12:22;27.70;;;14.63;;
2486;SDS011;1254;49.144;8.212;2023-01-26T07:14:50;24.77;;;13.23;;
2486;SDS011;1254;49.144;8.212;2023-01-26T07:17:18;30.08;;;13.15;;
2486;SDS011;1254;49.144;8.212;2023-01-26T07:19:46;24.30;;;13.27;;
2486;SDS011;1254;49.144;8.212;2023-01-26T07:22:14;33.67;;;15.20;;
2486;SDS011;1254;49.144;8.212;2023-01-26T07:24:41;26.65;;;14.15;;
2486;SDS011;1254;49.144;8.212;2023-01-26T07:27:11;26.23;;;14.25;;
2486;SDS011;1254;49.144;8.212;2023-01-26T07:29:39;29.42;;;14.98;;
2486;SDS011;1254;49.144;8.212;2023-01-26T07:32:07;31.27;;;13.85;;
2486;SDS011;1254;49.144;8.212;2023-01-26T07:34:35;26.33;;;14.00;;
2486;SDS011;1254;49.144;8.212;2023-01-26T07:37:03;25.90;;;13.27;;
2486;SDS011;1254;49.144;8.212;2023-01-26T07:39:31;37.72;;;15.98;;
2486;SDS011;1254;49.144;8.212;2023-01-26T07:41:59;28.38;;;15.35;;
2486;SDS011;1254;49.144;8.212;2023-01-26T07:44:42;25.52;;;13.65;;
2486;SDS011;1254;49.144;8.212;2023-01-26T07:47:10;40.45;;;20.08;;
2486;SDS011;1254;49.144;8.212;2023-01-26T07:49:39;34.53;;;17.85;;
2486;SDS011;1254;49.144;8.212;2023-01-26T07:52:08;29.95;;;17.40;;
2486;SDS011;1254;49.144;8.212;2023-01-26T07:54:37;28.10;;;15.02;;
2486;SDS011;1254;49.144;8.212;2023-01-26T07:57:05;29.98;;;14.15;;
2486;SDS011;1254;49.144;8.212;2023-01-26T07:59:34;27.02;;;15.77;;
2486;SDS011;1254;49.144;8.212;2023-01-26T08:02:03;16.50;;;9.70;;
2486;SDS011;1254;49.144;8.212;2023-01-26T08:04:31;24.48;;;10.48;;
2486;SDS011;1254;49.144;8.212;2023-01-26T08:07:00;17.55;;;9.45;;
2486;SDS011;1254;49.144;8.212;2023-01-26T08:09:28;12.65;;;8.45;;
2486;SDS011;1254;49.144;8.212;2023-01-26T08:11:56;13.75;;;8.73;;
2486;SDS011;1254;49.144;8.212;2023-01-26T08:14:25;19.48;;;10.80;;
2486;SDS011;1254;49.144;8.212;2023-01-26T08:16:53;17.58;;;9.93;;
2486;SDS011;1254;49.144;8.212;2023-01-26T08:19:23;21.52;;;12.27;;
2486;SDS011;1254;49.144;8.212;2023-01-26T08:21:51;16.63;;;11.85;;
2486;SDS011;1254;49.144;8.212;2023-01-26T08:24:19;16.77;;;10.43;;
2486;SDS011;1254;49.144;8.212;2023-01-26T08:26:47;22.17;;;12.05;;
2486;SDS011;1254;49.144;8.212;2023-01-26T08:29:16;23.25;;;12.95;;
2486;SDS011;1254;49.144;8.212;2023-01-26T08:31:47;25.33;;;13.43;;
2486;SDS011;1254;49.144;8.212;2023-01-26T08:34:16;21.88;;;12.18;;
2486;SDS011;1254;49.144;8.212;2023-01-26T08:36:47;25.27;;;13.00;;
2486;SDS011;1254;49.144;8.212;2023-01-26T08:39:16;21.10;;;11.15;;
2486;SDS011;1254;49.144;8.212;2023-01-26T08:41:45;20.48;;;11.15;;
2486;SDS011;1254;49.144;8.212;2023-01-26T08:44:13;20.48;;;11.50;;
2486;SDS011;1254;49.144;8.212;2023-01-26T08:46:42;20.75;;;10.82;;
2486;SDS011;1254;49.144;8.212;2023-01-26T08:49:10;21.27;;;10.75;;
2486;SDS011;1254;49.144;8.212;2023-01-26T08:51:40;18.85;;;9.30;;
2486;SDS011;1254;49.144;8.212;2023-01-26T08:54:09;14.27;;;8.60;;
2486;SDS011;1254;49.144;8.212;2023-01-26T08:56:38;16.75;;;9.15;;
2486;SDS011;1254;49.144;8.212;2023-01-26T08:59:06;16.02;;;9.48;;
2486;SDS011;1254;49.144;8.212;2023-01-26T09:01:34;11.57;;;7.90;;
2486;SDS011;1254;49.144;8.212;2023-01-26T09:04:02;14.43;;;7.68;;
2486;SDS011;1254;49.144;8.212;2023-01-26T09:06:30;15.85;;;8.60;;
2486;SDS011;1254;49.144;8.212;2023-01-26T09:08:59;11.60;;;8.02;;
2486;SDS011;1254;49.144;8.212;2023-01-26T09:11:28;25.17;;;11.30;;
2486;SDS011;1254;49.144;8.212;2023-01-26T09:13:56;14.05;;;8.57;;
2486;SDS011;1254;49.144;8.212;2023-01-26T09:16:25;14.35;;;8.80;;
2486;SDS011;1254;49.144;8.212;2023-01-26T09:18:53;16.02;;;8.77;;
2486;SDS011;1254;49.144;8.212;2023-01-26T09:21:21;13.98;;;9.20;;
2486;SDS011;1254;49.144;8.212;2023-01-26T09:23:49;19.45;;;11.45;;
2486;SDS011;1254;49.144;8.212;2023-01-26T09:26:17;42.83;;;24.70;;
2486;SDS011;1254;49.144;8.212;2023-01-26T09:28:49;30.90;;;17.73;;
2486;SDS011;1254;49.144;8.212;2023-01-26T09:31:17;25.02;;;12.95;;
2486;SDS011;1254;49.144;8.212;2023-01-26T09:33:46;15.85;;;9.63;;
2486;SDS011;1254;49.144;8.212;2023-01-26T09:36:15;20.08;;;11.75;;
2486;SDS011;1254;49.144;8.212;2023-01-26T09:38:43;21.88;;;12.13;;
2486;SDS011;1254;49.144;8.212;2023-01-26T09:41:16;13.75;;;8.85;;
2486;SDS011;1254;49.144;8.212;2023-01-26T09:43:47;13.55;;;9.10;;
2486;SDS011;1254;49.144;8.212;2023-01-26T09:46:20;15.15;;;8.13;;
2486;SDS011;1254;49.144;8.212;2023-01-26T09:48:52;16.02;;;10.15;;
2486;SDS011;1254;49.144;8.212;2023-01-26T09:51:22;12.15;;;8.15;;
2486;SDS011;1254;49.144;8.212;2023-01-26T09:53:53;19.75;;;9.00;;
2486;SDS011;1254;49.144;8.212;2023-01-26T09:56:22;14.80;;;9.82;;
2486;SDS011;1254;49.144;8.212;2023-01-26T09:58:53;10.35;;;8.50;;
2486;SDS011;1254;49.144;8.212;2023-01-26T10:01:27;10.82;;;7.68;;
2486;SDS011;1254;49.144;8.212;2023-01-26T10:03:59;12.05;;;7.82;;
2486;SDS011;1254;49.144;8.212;2023-01-26T10:06:29;13.55;;;7.50;;
2486;SDS011;1254;49.144;8.212;2023-01-26T10:09:07;14.60;;;8.05;;
2486;SDS011;1254;49.144;8.212;2023-01-26T10:11:39;17.23;;;10.70;;
2486;SDS011;1254;49.144;8.212;2023-01-26T10:14:09;21.35;;;12.48;;
2486;SDS011;1254;49.144;8.212;2023-01-26T10:16:40;10.60;;;7.32;;
2486;SDS011;1254;49.144;8.212;2023-01-26T10:19:10;10.27;;;6.70;;
2486;SDS011;1254;49.144;8.212;2023-01-26T10:21:41;8.85;;;6.93;;
2486;SDS011;1254;49.144;8.212;2023-01-26T10:24:11;9.73;;;7.43;;
2486;SDS011;1254;49.144;8.212;2023-01-26T10:26:43;8.43;;;6.70;;
2486;SDS011;1254;49.144;8.212;2023-01-26T10:29:12;8.25;;;6.50;;
2486;SDS011;1254;49.144;8.212;2023-01-26T10:31:43;7.72;;;5.88;;
2486;SDS011;1254;49.144;8.212;2023-01-26T10:34:12;8.27;;;6.43;;
2486;SDS011;1254;49.144;8.212;2023-01-26T10:36:42;10.68;;;7.53;;
2486;SDS011;1254;49.144;8.212;2023-01-26T10:39:11;9.05;;;6.85;;
2486;SDS011;1254;49.144;8.212;2023-01-26T10:41:40;8.10;;;6.60;;
2486;SDS011;1254;49.144;8.212;2023-01-26T10:44:23;9.90;;;6.93;;
2486;SDS011;1254;49.144;8.212;2023-01-26T10:47:02;11.30;;;6.35;;
2486;SDS011;1254;49.144;8.212;2023-01-26T10:49:30;9.05;;;6.60;;
2486;SDS011;1254;49.144;8.212;2023-01-26T10:52:06;10.88;;;6.13;;
2486;SDS011;1254;49.144;8.212;2023-01-26T10:54:34;6.65;;;4.80;;
2486;SDS011;1254;49.144;8.212;2023-01-26T10:57:05;7.75;;;5.53;;
2486;SDS011;1254;49.144;8.212;2023-01-26T10:59:43;10.90;;;5.60;;
2486;SDS011;1254;49.144;8.212;2023-01-26T11:02:19;7.78;;;6.50;;
2486;SDS011;1254;49.144;8.212;2023-01-26T11:07:34;7.50;;;5.85;;
2486;SDS011;1254;49.144;8.212;2023-01-26T11:10:15;10.65;;;6.15;;
2486;SDS011;1254;49.144;8.212;2023-01-26T11:12:44;7.38;;;6.38;;
2486;SDS011;1254;49.144;8.212;2023-01-26T11:15:15;8.18;;;5.63;;
2486;SDS011;1254;49.144;8.212;2023-01-26T11:17:49;6.32;;;4.95;;
2486;SDS011;1254;49.144;8.212;2023-01-26T11:20:27;6.35;;;5.13;;
2486;SDS011;1254;49.144;8.212;2023-01-26T11:22:59;6.00;;;5.40;;
2486;SDS011;1254;49.144;8.212;2023-01-26T11:25:30;6.85;;;5.70;;
2486;SDS011;1254;49.144;8.212;2023-01-26T11:28:07;8.27;;;6.63;;
2486;SDS011;1254;49.144;8.212;2023-01-26T11:30:50;7.68;;;5.68;;
2486;SDS011;1254;49.144;8.212;2023-01-26T11:33:27;10.80;;;6.07;;
2486;SDS011;1254;49.144;8.212;2023-01-26T11:35:59;9.82;;;7.70;;
2486;SDS011;1254;49.144;8.212;2023-01-26T11:38:31;11.73;;;7.32;;
2486;SDS011;1254;49.144;8.212;2023-01-26T11:41:15;13.30;;;8.52;;
2486;SDS011;1254;49.144;8.212;2023-01-26T11:43:51;13.48;;;8.52;;
2486;SDS011;1254;49.144;8.212;2023-01-26T11:46:32;8.85;;;6.90;;
2486;SDS011;1254;49.144;8.212;2023-01-26T11:49:08;10.38;;;6.28;;
2486;SDS011;1254;49.144;8.212;2023-01-26T11:51:43;9.57;;;6.85;;
2486;SDS011;1254;49.144;8.212;2023-01-26T11:54:18;11.07;;;5.85;;
2486;SDS011;1254;49.144;8.212;2023-01-26T11:56:53;19.30;;;6.40;;
2486;SDS011;1254;49.144;8.212;2023-01-26T11:59:25;7.15;;;5.70;;
2486;SDS011;1254;49.144;8.212;2023-01-26T12:01:55;8.63;;;6.75;;
2486;SDS011;1254;49.144;8.212;2023-01-26T12:04:27;13.02;;;5.68;;
2486;SDS011;1254;49.144;8.212;2023-01-26T12:06:59;7.03;;;5.93;;
2486;SDS011;1254;49.144;8.212;2023-01-26T12:09:29;8.68;;;5.15;;
2486;SDS011;1254;49.144;8.212;2023-01-26T12:12:02;9.00;;;6.50;;
2486;SDS011;1254;49.144;8.212;2023-01-26T12:14:33;14.30;;;6.38;;
2486;SDS011;1254;49.144;8.212;2023-01-26T12:17:09;6.68;;;5.80;;
2486;SDS011;1254;49.144;8.212;2023-01-26T12:19:42;8.25;;;5.72;;
2486;SDS011;1254;49.144;8.212;2023-01-26T12:22:12;8.95;;;7.20;;
2486;SDS011;1254;49.144;8.212;2023-01-26T12:24:44;9.85;;;5.93;;
2486;SDS011;1254;49.144;8.212;2023-01-26T12:27:15;7.70;;;6.28;;
2486;SDS011;1254;49.144;8.212;2023-01-26T12:29:46;6.93;;;5.60;;
2486;SDS011;1254;49.144;8.212;2023-01-26T12:32:16;9.05;;;5.75;;
2486;SDS011;1254;49.144;8.212;2023-01-26T12:34:45;6.03;;;4.95;;
2486;SDS011;1254;49.144;8.212;2023-01-26T12:37:21;7.93;;;5.72;;
2486;SDS011;1254;49.144;8.212;2023-01-26T12:39:52;10.68;;;7.10;;
2486;SDS011;1254;49.144;8.212;2023-01-26T12:42:25;10.75;;;7.38;;
2486;SDS011;1254;49.144;8.212;2023-01-26T12:44:57;9.45;;;7.25;;
2486;SDS011;1254;49.144;8.212;2023-01-26T12:47:27;9.32;;;6.30;;
2486;SDS011;1254;49.144;8.212;2023-01-26T12:49:59;9.50;;;6.68;;
2486;SDS011;1254;49.144;8.212;2023-01-26T12:52:30;6.55;;;5.78;;
2486;SDS011;1254;49.144;8.212;2023-01-26T12:55:03;12.52;;;7.50;;
2486;SDS011;1254;49.144;8.212;2023-01-26T12:57:35;9.30;;;6.10;;
2486;SDS011;1254;49.144;8.212;2023-01-26T13:00:05;7.03;;;5.82;;
2486;SDS011;1254;49.144;8.212;2023-01-26T13:02:35;8.55;;;6.65;;
2486;SDS011;1254;49.144;8.212;2023-01-26T13:05:05;8.85;;;6.80;;
2486;SDS011;1254;49.144;8.212;2023-01-26T13:07:34;8.02;;;5.90;;
2486;SDS011;1254;49.144;8.212;2023-01-26T13:10:08;8.45;;;7.30;;
2486;SDS011;1254;49.144;8.212;2023-01-26T13:12:43;7.53;;;5.75;;
2486;SDS011;1254;49.144;8.212;2023-01-26T13:15:12;7.40;;;6.05;;
2486;SDS011;1254;49.144;8.212;2023-01-26T13:17:52;8.32;;;7.53;;
2486;SDS011;1254;49.144;8.212;2023-01-26T13:20:24;7.50;;;5.97;;
2486;SDS011;1254;49.144;8.212;2023-01-26T13:22:52;11.27;;;7.72;;
2486;SDS011;1254;49.144;8.212;2023-01-26T13:25:25;15.15;;;10.85;;
2486;SDS011;1254;49.144;8.212;2023-01-26T13:27:56;14.13;;;8.27;;
2486;SDS011;1254;49.144;8.212;2023-01-26T13:30:31;9.82;;;7.40;;
2486;SDS011;1254;49.144;8.212;2023-01-26T13:33:01;10.25;;;7.15;;
2486;SDS011;1254;49.144;8.212;2023-01-26T13:35:33;10.70;;;7.15;;
2486;SDS011;1254;49.144;8.212;2023-01-26T13:38:05;11.48;;;7.28;;
2486;SDS011;1254;49.144;8.212;2023-01-26T13:40:37;15.13;;;9.85;;
2486;SDS011;1254;49.144;8.212;2023-01-26T13:43:09;11.02;;;8.52;;
2486;SDS011;1254;49.144;8.212;2023-01-26T13:45:39;13.50;;;9.40;;
2486;SDS011;1254;49.144;8.212;2023-01-26T13:48:12;19.38;;;11.38;;
2486;SDS011;1254;49.144;8.212;2023-01-26T13:50:42;26.05;;;11.05;;
2486;SDS011;1254;49.144;8.212;2023-01-26T13:53:27;10.38;;;7.80;;
2486;SDS011;1254;49.144;8.212;2023-01-26T13:55:57;14.68;;;9.85;;
2486;SDS011;1254;49.144;8.212;2023-01-26T13:58:26;13.50;;;9.77;;
2486;SDS011;1254;49.144;8.212;2023-01-26T14:00:58;22.75;;;8.60;;
2486;SDS011;1254;49.144;8.212;2023-01-26T14:03:26;16.02;;;8.98;;
2486;SDS011;1254;49.144;8.212;2023-01-26T14:05:56;12.25;;;7.30;;
2486;SDS011;1254;49.144;8.212;2023-01-26T14:08:25;10.15;;;7.70;;
2486;SDS011;1254;49.144;8.212;2023-01-26T14:10:53;9.95;;;7.70;;
2486;SDS011;1254;49.144;8.212;2023-01-26T14:13:23;10.80;;;8.10;;
2486;SDS011;1254;49.144;8.212;2023-01-26T14:15:56;11.57;;;9.15;;
2486;SDS011;1254;49.144;8.212;2023-01-26T14:18:24;18.42;;;8.77;;
2486;SDS011;1254;49.144;8.212;2023-01-26T14:21:00;12.15;;;9.10;;
2486;SDS011;1254;49.144;8.212;2023-01-26T14:23:32;15.13;;;9.50;;
2486;SDS011;1254;49.144;8.212;2023-01-26T14:26:00;16.33;;;9.73;;
2486;SDS011;1254;49.144;8.212;2023-01-26T14:28:30;13.75;;;9.98;;
2486;SDS011;1254;49.144;8.212;2023-01-26T14:31:00;17.92;;;11.20;;
2486;SDS011;1254;49.144;8.212;2023-01-26T14:33:29;18.33;;;10.20;;
2486;SDS011;1254;49.144;8.212;2023-01-26T14:35:58;14.27;;;9.80;;
2486;SDS011;1254;49.144;8.212;2023-01-26T14:38:28;25.58;;;10.45;;
2486;SDS011;1254;49.144;8.212;2023-01-26T14:40:58;22.15;;;10.88;;
2486;SDS011;1254;49.144;8.212;2023-01-26T14:43:26;15.90;;;9.52;;
2486;SDS011;1254;49.144;8.212;2023-01-26T14:45:58;13.95;;;9.90;;
2486;SDS011;1254;49.144;8.212;2023-01-26T14:48:30;17.20;;;10.27;;
2486;SDS011;1254;49.144;8.212;2023-01-26T14:50:59;13.13;;;8.90;;
2486;SDS011;1254;49.144;8.212;2023-01-26T14:53:29;17.20;;;10.65;;
2486;SDS011;1254;49.144;8.212;2023-01-26T14:55:57;19.65;;;11.05;;
2486;SDS011;1254;49.144;8.212;2023-01-26T14:58:26;14.55;;;8.40;;
2486;SDS011;1254;49.144;8.212;2023-01-26T15:00:54;14.65;;;9.27;;
2486;SDS011;1254;49.144;8.212;2023-01-26T15:03:25;15.25;;;9.38;;
2486;SDS011;1254;49.144;8.212;2023-01-26T15:06:02;18.95;;;9.05;;
2486;SDS011;1254;49.144;8.212;2023-01-26T15:08:32;18.83;;;10.32;;
2486;SDS011;1254;49.144;8.212;2023-01-26T15:11:01;21.33;;;9.88;;
2486;SDS011;1254;49.144;8.212;2023-01-26T15:13:51;18.95;;;10.52;;
2486;SDS011;1254;49.144;8.212;2023-01-26T15:16:21;54.13;;;23.90;;
2486;SDS011;1254;49.144;8.212;2023-01-26T15:18:56;18.20;;;11.48;;
2486;SDS011;1254;49.144;8.212;2023-01-26T15:21:27;16.25;;;9.60;;
2486;SDS011;1254;49.144;8.212;2023-01-26T15:23:59;19.20;;;12.15;;
2486;SDS011;1254;49.144;8.212;2023-01-26T15:26:28;45.95;;;19.35;;
2486;SDS011;1254;49.144;8.212;2023-01-26T15:28:57;30.10;;;14.30;;